sensor_id;sensor_type;location;lat;lon;timestamp;pressure;altitude;pressure_sealevel;temperature;humidity
76484;BME280;65318;-33.924;18.406;2022-12-29T00:01:42;100949.53;;;26.54;30.79
76484;BME280;65318;-33.924;18.406;2022-12-29T00:04:09;100950.37;;;27.15;30.33
76484;BME280;65318;-33.924;18.406;2022-12-29T00:06:33;100946.12;;;27.33;30.06
76484;BME280;65318;-33.924;18.406;2022-12-29T00:08:58;100950.03;;;27.67;29.81
76484;BME280;65318;-33.924;18.406;2022-12-29T00:11:25;100958.35;;;26.67;29.84
76484;BME280;65318;-33.924;18.406;2022-12-29T00:13:50;100957.21;;;26.51;30.28
76484;BME280;65318;-33.924;18.406;2022-12-29T00:16:15;100956.33;;;26.28;30.37
76484;BME280;65318;-33.924;18.406;2022-12-29T00:18:40;100943.06;;;26.49;29.97
76484;BME280;65318;-33.924;18.406;2022-12-29T00:21:07;100954.93;;;26.86;29.50
76484;BME280;65318;-33.924;18.406;2022-12-29T00:23:31;100965.66;;;27.12;29.07
76484;BME280;65318;-33.924;18.406;2022-12-29T00:25:57;100969.86;;;26.75;29.17
76484;BME280;65318;-33.924;18.406;2022-12-29T00:28:22;100958.29;;;26.77;29.03
76484;BME280;65318;-33.924;18.406;2022-12-29T00:30:48;100957.89;;;26.58;28.92
76484;BME280;65318;-33.924;18.406;2022-12-29T00:33:15;100977.15;;;26.79;28.56
76484;BME280;65318;-33.924;18.406;2022-12-29T00:35:42;100978.61;;;27.44;27.74
76484;BME280;65318;-33.924;18.406;2022-12-29T00:38:06;100984.71;;;26.50;28.22
76484;BME280;65318;-33.924;18.406;2022-12-29T00:40:30;100982.87;;;26.31;27.91
76484;BME280;65318;-33.924;18.406;2022-12-29T00:42:55;100988.12;;;26.35;27.91
76484;BME280;65318;-33.924;18.406;2022-12-29T00:45:21;100993.25;;;26.41;27.87
76484;BME280;65318;-33.924;18.406;2022-12-29T00:47:47;100981.82;;;26.68;27.48
76484;BME280;65318;-33.924;18.406;2022-12-29T00:50:12;100987.93;;;26.58;27.41
76484;BME280;65318;-33.924;18.406;2022-12-29T00:52:38;100990.88;;;26.08;27.52
76484;BME280;65318;-33.924;18.406;2022-12-29T00:55:04;100984.71;;;26.63;27.48
76484;BME280;65318;-33.924;18.406;2022-12-29T00:57:29;100991.04;;;25.71;27.87
76484;BME280;65318;-33.924;18.406;2022-12-29T00:59:54;101002.37;;;26.18;27.84
76484;BME280;65318;-33.924;18.406;2022-12-29T01:02:20;101001.83;;;26.06;27.74
76484;BME280;65318;-33.924;18.406;2022-12-29T01:04:45;101009.22;;;26.12;27.46
76484;BME280;65318;-33.924;18.406;2022-12-29T01:07:11;101004.79;;;26.44;27.36
76484;BME280;65318;-33.924;18.406;2022-12-29T01:09:36;101017.99;;;25.61;27.86
76484;BME280;65318;-33.924;18.406;2022-12-29T01:12:02;101015.86;;;25.86;27.92
76484;BME280;65318;-33.924;18.406;2022-12-29T01:14:27;101016.02;;;26.20;27.84
76484;BME280;65318;-33.924;18.406;2022-12-29T01:16:54;101016.00;;;26.35;27.68
76484;BME280;65318;-33.924;18.406;2022-12-29T01:19:20;101018.27;;;25.35;28.46
76484;BME280;65318;-33.924;18.406;2022-12-29T01:21:44;101013.72;;;26.00;27.76
76484;BME280;65318;-33.924;18.406;2022-12-29T01:24:10;101018.47;;;25.99;28.14
76484;BME280;65318;-33.924;18.406;2022-12-29T01:26:35;101020.30;;;26.02;27.73
76484;BME280;65318;-33.924;18.406;2022-12-29T01:29:01;101014.42;;;26.07;28.02
76484;BME280;65318;-33.924;18.406;2022-12-29T01:31:26;101027.18;;;26.03;27.81
76484;BME280;65318;-33.924;18.406;2022-12-29T01:33:52;101025.06;;;26.17;27.76
76484;BME280;65318;-33.924;18.406;2022-12-29T01:36:18;101036.49;;;26.15;28.36
76484;BME280;65318;-33.924;18.406;2022-12-29T01:38:44;101036.54;;;25.97;28.56
76484;BME280;65318;-33.924;18.406;2022-12-29T01:41:11;101049.60;;;26.41;28.20
76484;BME280;65318;-33.924;18.406;2022-12-29T01:43:41;101044.08;;;26.27;28.16
76484;BME280;65318;-33.924;18.406;2022-12-29T01:46:00;101055.29;;;25.84;28.79
76484;BME280;65318;-33.924;18.406;2022-12-29T01:48:25;101058.41;;;25.32;28.64
76484;BME280;65318;-33.924;18.406;2022-12-29T01:50:52;101069.12;;;26.45;28.39
76484;BME280;65318;-33.924;18.406;2022-12-29T01:53:20;101074.49;;;25.78;29.04
76484;BME280;65318;-33.924;18.406;2022-12-29T01:55:45;101075.09;;;25.62;28.99
76484;BME280;65318;-33.924;18.406;2022-12-29T01:58:08;101083.63;;;25.70;28.74
76484;BME280;65318;-33.924;18.406;2022-12-29T02:00:33;101090.37;;;26.56;28.38
76484;BME280;65318;-33.924;18.406;2022-12-29T02:02:59;101071.82;;;24.11;30.38
76484;BME280;65318;-33.924;18.406;2022-12-29T02:05:28;101075.01;;;25.48;28.83
76484;BME280;65318;-33.924;18.406;2022-12-29T02:07:51;101083.49;;;25.78;28.96
76484;BME280;65318;-33.924;18.406;2022-12-29T02:10:15;101086.07;;;25.57;29.36
76484;BME280;65318;-33.924;18.406;2022-12-29T02:12:41;101061.02;;;24.52;30.41
76484;BME280;65318;-33.924;18.406;2022-12-29T02:15:08;101100.22;;;24.63;30.12
76484;BME280;65318;-33.924;18.406;2022-12-29T02:17:43;101083.94;;;25.79;29.03
76484;BME280;65318;-33.924;18.406;2022-12-29T02:20:11;101084.68;;;26.02;29.02
76484;BME280;65318;-33.924;18.406;2022-12-29T02:22:27;101085.34;;;25.37;29.18
76484;BME280;65318;-33.924;18.406;2022-12-29T02:25:05;101076.36;;;25.98;29.08
76484;BME280;65318;-33.924;18.406;2022-12-29T02:27:25;101093.23;;;26.07;29.01
76484;BME280;65318;-33.924;18.406;2022-12-29T02:29:53;101094.25;;;25.10;29.93
76484;BME280;65318;-33.924;18.406;2022-12-29T02:32:08;101096.83;;;24.25;30.89
76484;BME280;65318;-33.924;18.406;2022-12-29T02:34:38;101097.72;;;25.28;29.38
76484;BME280;65318;-33.924;18.406;2022-12-29T02:37:02;101104.59;;;25.50;29.43
76484;BME280;65318;-33.924;18.406;2022-12-29T02:39:23;101109.57;;;25.82;29.36
76484;BME280;65318;-33.924;18.406;2022-12-29T02:41:55;101098.81;;;25.27;29.68
76484;BME280;65318;-33.924;18.406;2022-12-29T02:44:15;101091.52;;;25.80;29.18
76484;BME280;65318;-33.924;18.406;2022-12-29T02:46:43;101092.12;;;25.47;29.30
76484;BME280;65318;-33.924;18.406;2022-12-29T02:49:08;101107.56;;;25.91;29.30
76484;BME280;65318;-33.924;18.406;2022-12-29T02:51:33;101098.35;;;25.39;29.38
76484;BME280;65318;-33.924;18.406;2022-12-29T02:53:56;101082.59;;;25.82;29.46
76484;BME280;65318;-33.924;18.406;2022-12-29T02:56:20;101122.89;;;25.91;29.40
76484;BME280;65318;-33.924;18.406;2022-12-29T02:58:45;101121.33;;;25.51;29.76
76484;BME280;65318;-33.924;18.406;2022-12-29T03:01:23;101122.69;;;24.74;30.62
76484;BME280;65318;-33.924;18.406;2022-12-29T03:03:47;101122.32;;;25.38;29.54
76484;BME280;65318;-33.924;18.406;2022-12-29T03:06:12;101108.84;;;26.23;29.21
76484;BME280;65318;-33.924;18.406;2022-12-29T03:08:34;101121.39;;;25.61;29.38
76484;BME280;65318;-33.924;18.406;2022-12-29T03:10:59;101133.98;;;26.12;29.39
76484;BME280;65318;-33.924;18.406;2022-12-29T03:13:25;101130.12;;;25.89;29.65
76484;BME280;65318;-33.924;18.406;2022-12-29T03:15:49;101133.68;;;25.70;29.63
76484;BME280;65318;-33.924;18.406;2022-12-29T03:18:14;101135.07;;;26.03;29.52
76484;BME280;65318;-33.924;18.406;2022-12-29T03:20:40;101135.37;;;26.93;28.73
76484;BME280;65318;-33.924;18.406;2022-12-29T03:23:02;101149.32;;;25.75;29.97
76484;BME280;65318;-33.924;18.406;2022-12-29T03:25:29;101139.63;;;25.65;29.68
76484;BME280;65318;-33.924;18.406;2022-12-29T03:27:55;101156.22;;;25.08;30.38
76484;BME280;65318;-33.924;18.406;2022-12-29T03:30:18;101171.86;;;24.94;30.41
76484;BME280;65318;-33.924;18.406;2022-12-29T03:32:45;101162.39;;;25.25;30.11
76484;BME280;65318;-33.924;18.406;2022-12-29T03:35:11;101179.48;;;25.74;29.65
76484;BME280;65318;-33.924;18.406;2022-12-29T03:37:37;101177.04;;;25.39;29.92
76484;BME280;65318;-33.924;18.406;2022-12-29T03:39:59;101182.74;;;25.50;29.60
76484;BME280;65318;-33.924;18.406;2022-12-29T03:42:27;101156.70;;;25.13;29.69
76484;BME280;65318;-33.924;18.406;2022-12-29T03:44:54;101181.89;;;25.92;29.38
76484;BME280;65318;-33.924;18.406;2022-12-29T03:47:16;101194.71;;;24.06;30.72
76484;BME280;65318;-33.924;18.406;2022-12-29T03:49:42;101181.51;;;25.33;29.90
76484;BME280;65318;-33.924;18.406;2022-12-29T03:52:07;101196.14;;;25.84;29.30
76484;BME280;65318;-33.924;18.406;2022-12-29T03:54:33;101190.00;;;25.21;29.50
76484;BME280;65318;-33.924;18.406;2022-12-29T03:56:58;101177.13;;;25.27;29.57
76484;BME280;65318;-33.924;18.406;2022-12-29T03:59:24;101211.40;;;24.92;29.72
76484;BME280;65318;-33.924;18.406;2022-12-29T04:01:49;101205.89;;;25.93;29.20
76484;BME280;65318;-33.924;18.406;2022-12-29T04:04:15;101196.21;;;26.06;28.86
76484;BME280;65318;-33.924;18.406;2022-12-29T04:06:41;101205.82;;;25.73;29.14
76484;BME280;65318;-33.924;18.406;2022-12-29T04:09:06;101211.15;;;24.55;30.57
76484;BME280;65318;-33.924;18.406;2022-12-29T04:11:32;101206.36;;;26.63;28.87
76484;BME280;65318;-33.924;18.406;2022-12-29T04:13:57;101186.60;;;28.21;26.79
76484;BME280;65318;-33.924;18.406;2022-12-29T04:16:23;101203.10;;;28.66;25.76
76484;BME280;65318;-33.924;18.406;2022-12-29T04:18:48;101212.22;;;29.41;25.35
76484;BME280;65318;-33.924;18.406;2022-12-29T04:21:14;101189.84;;;29.36;25.37
76484;BME280;65318;-33.924;18.406;2022-12-29T04:23:40;101209.86;;;28.73;25.86
76484;BME280;65318;-33.924;18.406;2022-12-29T04:26:06;101216.01;;;29.44;25.27
76484;BME280;65318;-33.924;18.406;2022-12-29T04:28:30;101225.29;;;30.51;24.35
76484;BME280;65318;-33.924;18.406;2022-12-29T04:30:56;101223.43;;;31.30;23.54
76484;BME280;65318;-33.924;18.406;2022-12-29T04:33:22;101210.81;;;32.77;22.16
76484;BME280;65318;-33.924;18.406;2022-12-29T04:35:47;101217.09;;;32.39;22.24
76484;BME280;65318;-33.924;18.406;2022-12-29T04:38:13;101240.81;;;33.51;21.35
76484;BME280;65318;-33.924;18.406;2022-12-29T04:40:39;101225.96;;;34.42;20.79
76484;BME280;65318;-33.924;18.406;2022-12-29T04:43:04;101228.94;;;34.57;20.39
76484;BME280;65318;-33.924;18.406;2022-12-29T04:45:29;101224.36;;;34.61;20.20
76484;BME280;65318;-33.924;18.406;2022-12-29T04:47:54;101228.50;;;34.94;20.02
76484;BME280;65318;-33.924;18.406;2022-12-29T04:50:20;101217.81;;;35.58;19.49
76484;BME280;65318;-33.924;18.406;2022-12-29T04:52:46;101227.46;;;35.77;19.25
76484;BME280;65318;-33.924;18.406;2022-12-29T04:55:11;101236.93;;;35.80;19.23
76484;BME280;65318;-33.924;18.406;2022-12-29T04:57:36;101242.21;;;35.93;19.12
76484;BME280;65318;-33.924;18.406;2022-12-29T05:00:02;101240.05;;;36.25;18.90
76484;BME280;65318;-33.924;18.406;2022-12-29T05:02:27;101240.36;;;36.38;18.51
76484;BME280;65318;-33.924;18.406;2022-12-29T05:04:52;101237.14;;;37.47;17.98
76484;BME280;65318;-33.924;18.406;2022-12-29T05:07:19;101240.38;;;36.91;18.12
76484;BME280;65318;-33.924;18.406;2022-12-29T05:09:44;101249.12;;;36.35;18.35
76484;BME280;65318;-33.924;18.406;2022-12-29T05:12:09;101242.74;;;35.33;19.23
76484;BME280;65318;-33.924;18.406;2022-12-29T05:14:35;101240.27;;;33.79;20.46
76484;BME280;65318;-33.924;18.406;2022-12-29T05:17:00;101246.11;;;34.31;20.29
76484;BME280;65318;-33.924;18.406;2022-12-29T05:19:25;101244.51;;;33.61;20.39
76484;BME280;65318;-33.924;18.406;2022-12-29T05:21:50;101241.82;;;33.75;20.41
76484;BME280;65318;-33.924;18.406;2022-12-29T05:24:16;101237.62;;;33.73;20.69
76484;BME280;65318;-33.924;18.406;2022-12-29T05:26:41;101234.49;;;33.29;20.92
76484;BME280;65318;-33.924;18.406;2022-12-29T05:29:07;101242.91;;;33.55;21.03
76484;BME280;65318;-33.924;18.406;2022-12-29T05:31:33;101249.87;;;33.01;21.13
76484;BME280;65318;-33.924;18.406;2022-12-29T05:33:57;101259.28;;;33.19;21.20
76484;BME280;65318;-33.924;18.406;2022-12-29T05:36:23;101246.91;;;32.77;21.31
76484;BME280;65318;-33.924;18.406;2022-12-29T05:38:48;101247.04;;;33.57;20.85
76484;BME280;65318;-33.924;18.406;2022-12-29T05:41:14;101261.38;;;33.73;21.05
76484;BME280;65318;-33.924;18.406;2022-12-29T05:43:39;101278.90;;;33.17;21.37
76484;BME280;65318;-33.924;18.406;2022-12-29T05:46:05;101270.41;;;33.60;21.04
76484;BME280;65318;-33.924;18.406;2022-12-29T05:48:30;101274.28;;;34.17;20.82
76484;BME280;65318;-33.924;18.406;2022-12-29T05:50:56;101265.78;;;33.98;20.98
76484;BME280;65318;-33.924;18.406;2022-12-29T05:53:21;101278.65;;;34.39;20.14
76484;BME280;65318;-33.924;18.406;2022-12-29T05:55:47;101271.91;;;34.66;20.11
76484;BME280;65318;-33.924;18.406;2022-12-29T05:58:12;101271.53;;;36.42;19.13
76484;BME280;65318;-33.924;18.406;2022-12-29T06:00:38;101283.26;;;34.02;20.53
76484;BME280;65318;-33.924;18.406;2022-12-29T06:03:04;101285.30;;;36.05;19.21
76484;BME280;65318;-33.924;18.406;2022-12-29T06:05:28;101284.11;;;34.71;19.98
76484;BME280;65318;-33.924;18.406;2022-12-29T06:07:54;101288.09;;;35.40;19.53
76484;BME280;65318;-33.924;18.406;2022-12-29T06:10:20;101305.99;;;35.01;19.72
76484;BME280;65318;-33.924;18.406;2022-12-29T06:12:45;101284.86;;;34.67;19.90
76484;BME280;65318;-33.924;18.406;2022-12-29T06:15:11;101277.82;;;34.95;19.82
76484;BME280;65318;-33.924;18.406;2022-12-29T06:17:36;101280.12;;;33.94;20.55
76484;BME280;65318;-33.924;18.406;2022-12-29T06:20:01;101283.62;;;34.15;20.44
76484;BME280;65318;-33.924;18.406;2022-12-29T06:22:27;101271.73;;;35.24;19.60
76484;BME280;65318;-33.924;18.406;2022-12-29T06:24:52;101291.62;;;35.17;19.67
76484;BME280;65318;-33.924;18.406;2022-12-29T06:27:18;101316.11;;;33.87;20.29
76484;BME280;65318;-33.924;18.406;2022-12-29T06:29:43;101314.12;;;33.22;20.99
76484;BME280;65318;-33.924;18.406;2022-12-29T06:32:09;101301.34;;;33.98;20.51
76484;BME280;65318;-33.924;18.406;2022-12-29T06:34:34;101309.84;;;34.17;20.20
76484;BME280;65318;-33.924;18.406;2022-12-29T06:36:59;101314.58;;;33.24;21.00
76484;BME280;65318;-33.924;18.406;2022-12-29T06:39:25;101316.83;;;33.06;20.76
76484;BME280;65318;-33.924;18.406;2022-12-29T06:41:52;101310.03;;;33.89;20.92
76484;BME280;65318;-33.924;18.406;2022-12-29T06:44:16;101312.36;;;34.11;20.85
76484;BME280;65318;-33.924;18.406;2022-12-29T06:46:41;101298.47;;;35.29;19.36
76484;BME280;65318;-33.924;18.406;2022-12-29T06:49:06;101304.78;;;36.83;18.60
76484;BME280;65318;-33.924;18.406;2022-12-29T06:51:32;101313.05;;;36.30;18.78
76484;BME280;65318;-33.924;18.406;2022-12-29T06:53:57;101305.05;;;35.46;19.50
76484;BME280;65318;-33.924;18.406;2022-12-29T06:56:23;101297.21;;;36.06;18.87
76484;BME280;65318;-33.924;18.406;2022-12-29T06:58:48;101308.93;;;34.61;19.81
76484;BME280;65318;-33.924;18.406;2022-12-29T07:01:14;101322.97;;;34.56;20.38
76484;BME280;65318;-33.924;18.406;2022-12-29T07:03:41;101314.37;;;33.87;20.65
76484;BME280;65318;-33.924;18.406;2022-12-29T07:06:05;101305.64;;;33.10;21.64
76484;BME280;65318;-33.924;18.406;2022-12-29T07:08:30;101330.92;;;32.40;22.19
76484;BME280;65318;-33.924;18.406;2022-12-29T07:10:55;101323.98;;;32.82;21.66
76484;BME280;65318;-33.924;18.406;2022-12-29T07:13:21;101322.50;;;33.00;21.93
76484;BME280;65318;-33.924;18.406;2022-12-29T07:15:46;101313.79;;;32.34;22.09
76484;BME280;65318;-33.924;18.406;2022-12-29T07:18:11;101310.62;;;33.16;22.06
76484;BME280;65318;-33.924;18.406;2022-12-29T07:20:37;101307.70;;;32.58;22.14
76484;BME280;65318;-33.924;18.406;2022-12-29T07:23:03;101312.59;;;32.16;22.43
76484;BME280;65318;-33.924;18.406;2022-12-29T07:25:28;101303.55;;;32.04;22.47
76484;BME280;65318;-33.924;18.406;2022-12-29T07:27:54;101317.27;;;29.80;23.75
76484;BME280;65318;-33.924;18.406;2022-12-29T07:30:19;101312.83;;;31.34;23.13
76484;BME280;65318;-33.924;18.406;2022-12-29T07:32:44;101318.61;;;31.51;22.80
76484;BME280;65318;-33.924;18.406;2022-12-29T07:35:10;101291.00;;;32.77;22.00
76484;BME280;65318;-33.924;18.406;2022-12-29T07:37:35;101309.86;;;32.44;22.25
76484;BME280;65318;-33.924;18.406;2022-12-29T07:40:01;101308.52;;;31.41;22.54
76484;BME280;65318;-33.924;18.406;2022-12-29T07:42:26;101307.72;;;30.85;23.19
76484;BME280;65318;-33.924;18.406;2022-12-29T07:44:52;101310.12;;;31.49;23.04
76484;BME280;65318;-33.924;18.406;2022-12-29T07:47:17;101305.75;;;33.07;21.84
76484;BME280;65318;-33.924;18.406;2022-12-29T07:49:42;101300.42;;;31.56;23.05
76484;BME280;65318;-33.924;18.406;2022-12-29T07:52:08;101303.68;;;32.65;22.13
76484;BME280;65318;-33.924;18.406;2022-12-29T07:54:33;101301.15;;;32.43;22.21
76484;BME280;65318;-33.924;18.406;2022-12-29T07:56:59;101296.75;;;32.88;21.41
76484;BME280;65318;-33.924;18.406;2022-12-29T07:59:24;101297.31;;;32.45;21.64
76484;BME280;65318;-33.924;18.406;2022-12-29T08:01:50;101308.44;;;32.88;21.61
76484;BME280;65318;-33.924;18.406;2022-12-29T08:04:15;101309.41;;;32.42;21.89
76484;BME280;65318;-33.924;18.406;2022-12-29T08:06:41;101315.51;;;32.05;22.35
76484;BME280;65318;-33.924;18.406;2022-12-29T08:09:07;101311.74;;;32.16;22.13
76484;BME280;65318;-33.924;18.406;2022-12-29T08:11:32;101299.20;;;32.40;21.97
76484;BME280;65318;-33.924;18.406;2022-12-29T08:13:57;101304.32;;;32.29;22.00
76484;BME280;65318;-33.924;18.406;2022-12-29T08:16:22;101302.31;;;32.32;21.84
76484;BME280;65318;-33.924;18.406;2022-12-29T08:18:48;101309.32;;;33.06;21.43
76484;BME280;65318;-33.924;18.406;2022-12-29T08:21:14;101307.92;;;32.80;21.60
76484;BME280;65318;-33.924;18.406;2022-12-29T08:23:39;101310.60;;;32.52;21.60
76484;BME280;65318;-33.924;18.406;2022-12-29T08:26:05;101309.08;;;32.58;21.41
76484;BME280;65318;-33.924;18.406;2022-12-29T08:28:30;101312.30;;;33.04;20.84
76484;BME280;65318;-33.924;18.406;2022-12-29T08:30:57;101330.17;;;32.50;21.64
76484;BME280;65318;-33.924;18.406;2022-12-29T08:33:21;101308.58;;;32.65;21.59
76484;BME280;65318;-33.924;18.406;2022-12-29T08:35:46;101322.01;;;32.21;21.33
76484;BME280;65318;-33.924;18.406;2022-12-29T08:38:12;101314.99;;;31.89;21.40
76484;BME280;65318;-33.924;18.406;2022-12-29T08:40:37;101316.58;;;31.61;21.86
76484;BME280;65318;-33.924;18.406;2022-12-29T08:43:03;101327.16;;;32.00;21.67
76484;BME280;65318;-33.924;18.406;2022-12-29T08:45:28;101323.53;;;31.66;21.62
76484;BME280;65318;-33.924;18.406;2022-12-29T08:47:53;101322.07;;;31.61;21.76
76484;BME280;65318;-33.924;18.406;2022-12-29T08:50:19;101331.63;;;32.32;21.39
76484;BME280;65318;-33.924;18.406;2022-12-29T08:52:44;101328.66;;;32.15;21.51
76484;BME280;65318;-33.924;18.406;2022-12-29T08:55:10;101340.86;;;30.40;22.49
76484;BME280;65318;-33.924;18.406;2022-12-29T08:57:35;101336.29;;;31.49;21.79
76484;BME280;65318;-33.924;18.406;2022-12-29T09:00:01;101348.06;;;30.78;22.40
76484;BME280;65318;-33.924;18.406;2022-12-29T09:02:26;101312.82;;;29.75;22.60
76484;BME280;65318;-33.924;18.406;2022-12-29T09:04:52;101316.34;;;29.80;22.91
76484;BME280;65318;-33.924;18.406;2022-12-29T09:07:17;101323.17;;;31.24;22.27
76484;BME280;65318;-33.924;18.406;2022-12-29T09:09:43;101318.89;;;31.01;22.15
76484;BME280;65318;-33.924;18.406;2022-12-29T09:12:08;101313.18;;;31.31;22.09
76484;BME280;65318;-33.924;18.406;2022-12-29T09:14:33;101322.27;;;31.55;21.75
76484;BME280;65318;-33.924;18.406;2022-12-29T09:16:59;101321.49;;;30.97;22.39
76484;BME280;65318;-33.924;18.406;2022-12-29T09:19:24;101321.89;;;30.45;22.45
76484;BME280;65318;-33.924;18.406;2022-12-29T09:21:50;101325.06;;;28.94;23.58
76484;BME280;65318;-33.924;18.406;2022-12-29T09:24:15;101327.81;;;31.64;21.76
76484;BME280;65318;-33.924;18.406;2022-12-29T09:26:41;101329.61;;;30.68;22.28
76484;BME280;65318;-33.924;18.406;2022-12-29T09:29:06;101332.06;;;31.02;22.38
76484;BME280;65318;-33.924;18.406;2022-12-29T09:31:32;101336.85;;;30.61;22.59
76484;BME280;65318;-33.924;18.406;2022-12-29T09:33:57;101345.83;;;30.97;22.17
76484;BME280;65318;-33.924;18.406;2022-12-29T09:36:23;101339.43;;;31.31;21.66
76484;BME280;65318;-33.924;18.406;2022-12-29T09:38:48;101341.97;;;30.99;22.24
76484;BME280;65318;-33.924;18.406;2022-12-29T09:41:18;101338.51;;;29.28;22.92
76484;BME280;65318;-33.924;18.406;2022-12-29T09:43:55;101340.08;;;30.78;22.12
76484;BME280;65318;-33.924;18.406;2022-12-29T09:46:14;101343.87;;;30.85;22.09
76484;BME280;65318;-33.924;18.406;2022-12-29T09:48:32;101343.23;;;28.80;23.21
76484;BME280;65318;-33.924;18.406;2022-12-29T09:50:58;101347.82;;;30.51;22.17
76484;BME280;65318;-33.924;18.406;2022-12-29T09:53:25;101346.16;;;30.88;22.18
76484;BME280;65318;-33.924;18.406;2022-12-29T09:55:49;101330.02;;;31.24;22.19
76484;BME280;65318;-33.924;18.406;2022-12-29T09:58:15;101338.64;;;31.53;22.27
76484;BME280;65318;-33.924;18.406;2022-12-29T10:00:40;101324.67;;;30.68;22.98
76484;BME280;65318;-33.924;18.406;2022-12-29T10:03:09;101336.71;;;31.37;22.47
76484;BME280;65318;-33.924;18.406;2022-12-29T10:05:33;101337.35;;;30.46;22.54
76484;BME280;65318;-33.924;18.406;2022-12-29T10:08:04;101340.00;;;31.23;22.38
76484;BME280;65318;-33.924;18.406;2022-12-29T10:10:29;101337.50;;;30.65;22.88
76484;BME280;65318;-33.924;18.406;2022-12-29T10:12:56;101331.24;;;31.20;22.39
76484;BME280;65318;-33.924;18.406;2022-12-29T10:15:17;101326.13;;;31.29;22.20
76484;BME280;65318;-33.924;18.406;2022-12-29T10:17:39;101335.02;;;30.82;22.35
76484;BME280;65318;-33.924;18.406;2022-12-29T10:20:14;101316.62;;;30.92;21.83
76484;BME280;65318;-33.924;18.406;2022-12-29T10:22:38;101328.09;;;30.78;21.77
76484;BME280;65318;-33.924;18.406;2022-12-29T10:24:53;101320.53;;;30.94;22.05
76484;BME280;65318;-33.924;18.406;2022-12-29T10:27:18;101321.45;;;31.96;21.78
76484;BME280;65318;-33.924;18.406;2022-12-29T10:29:47;101333.28;;;30.86;22.29
76484;BME280;65318;-33.924;18.406;2022-12-29T10:32:20;101321.80;;;30.28;22.63
76484;BME280;65318;-33.924;18.406;2022-12-29T10:34:37;101318.26;;;31.42;21.97
76484;BME280;65318;-33.924;18.406;2022-12-29T10:37:03;101323.35;;;31.09;22.15
76484;BME280;65318;-33.924;18.406;2022-12-29T10:39:30;101327.17;;;30.34;22.21
76484;BME280;65318;-33.924;18.406;2022-12-29T10:41:53;101307.66;;;30.96;22.23
76484;BME280;65318;-33.924;18.406;2022-12-29T10:44:16;101313.32;;;31.43;22.03
76484;BME280;65318;-33.924;18.406;2022-12-29T10:46:41;101306.95;;;29.99;22.62
76484;BME280;65318;-33.924;18.406;2022-12-29T10:49:06;101297.75;;;30.54;22.47
76484;BME280;65318;-33.924;18.406;2022-12-29T10:51:33;101296.52;;;31.05;22.17
76484;BME280;65318;-33.924;18.406;2022-12-29T10:54:01;101298.90;;;30.40;22.30
76484;BME280;65318;-33.924;18.406;2022-12-29T10:56:29;101293.24;;;30.43;22.44
76484;BME280;65318;-33.924;18.406;2022-12-29T10:58:49;101276.01;;;30.23;22.19
76484;BME280;65318;-33.924;18.406;2022-12-29T11:01:13;101278.96;;;30.69;22.19
76484;BME280;65318;-33.924;18.406;2022-12-29T11:03:47;101262.62;;;29.35;22.76
76484;BME280;65318;-33.924;18.406;2022-12-29T11:06:08;101260.67;;;29.18;22.95
76484;BME280;65318;-33.924;18.406;2022-12-29T11:08:35;101283.55;;;29.78;22.57
76484;BME280;65318;-33.924;18.406;2022-12-29T11:11:00;101277.36;;;30.64;21.92
76484;BME280;65318;-33.924;18.406;2022-12-29T11:13:26;101276.08;;;30.36;22.05
76484;BME280;65318;-33.924;18.406;2022-12-29T11:15:48;101279.68;;;30.28;22.01
76484;BME280;65318;-33.924;18.406;2022-12-29T11:18:18;101263.81;;;28.24;23.36
76484;BME280;65318;-33.924;18.406;2022-12-29T11:20:38;101270.25;;;29.45;22.55
76484;BME280;65318;-33.924;18.406;2022-12-29T11:23:04;101294.64;;;28.28;23.19
76484;BME280;65318;-33.924;18.406;2022-12-29T11:25:28;101287.32;;;30.17;22.14
76484;BME280;65318;-33.924;18.406;2022-12-29T11:27:57;101279.69;;;30.93;21.61
76484;BME280;65318;-33.924;18.406;2022-12-29T11:30:24;101285.85;;;30.14;22.21
76484;BME280;65318;-33.924;18.406;2022-12-29T11:32:50;101279.53;;;28.69;23.03
76484;BME280;65318;-33.924;18.406;2022-12-29T11:35:29;101285.08;;;28.82;23.25
76484;BME280;65318;-33.924;18.406;2022-12-29T11:37:38;101276.80;;;30.14;22.53
76484;BME280;65318;-33.924;18.406;2022-12-29T11:40:02;101283.18;;;30.33;22.44
76484;BME280;65318;-33.924;18.406;2022-12-29T11:42:33;101273.71;;;29.97;22.50
76484;BME280;65318;-33.924;18.406;2022-12-29T11:44:52;101284.91;;;29.91;22.90
76484;BME280;65318;-33.924;18.406;2022-12-29T11:47:25;101274.48;;;31.07;22.18
76484;BME280;65318;-33.924;18.406;2022-12-29T11:49:49;101270.57;;;27.91;24.14
76484;BME280;65318;-33.924;18.406;2022-12-29T11:52:08;101267.09;;;29.50;23.18
76484;BME280;65318;-33.924;18.406;2022-12-29T11:54:36;101273.20;;;29.84;22.72
76484;BME280;65318;-33.924;18.406;2022-12-29T12:01:50;101261.38;;;29.21;23.10
76484;BME280;65318;-33.924;18.406;2022-12-29T12:04:17;101287.87;;;28.31;23.87
76484;BME280;65318;-33.924;18.406;2022-12-29T12:06:44;101247.10;;;29.15;23.45
76484;BME280;65318;-33.924;18.406;2022-12-29T12:09:10;101250.10;;;29.60;23.10
76484;BME280;65318;-33.924;18.406;2022-12-29T12:11:36;101268.84;;;28.62;23.62
76484;BME280;65318;-33.924;18.406;2022-12-29T12:14:00;101259.07;;;29.59;22.87
76484;BME280;65318;-33.924;18.406;2022-12-29T12:16:27;101217.63;;;29.26;23.34
76484;BME280;65318;-33.924;18.406;2022-12-29T12:18:50;101248.97;;;30.34;22.61
76484;BME280;65318;-33.924;18.406;2022-12-29T12:21:21;101254.39;;;29.40;23.24
76484;BME280;65318;-33.924;18.406;2022-12-29T12:23:46;101253.56;;;30.57;22.61
76484;BME280;65318;-33.924;18.406;2022-12-29T12:26:11;101260.51;;;30.66;22.47